Time;durP1;ratioP1;P1;durP2;ratioP2;P2;SDS_P1;SDS_P2;PMS_P1;PMS_P2;Temp;Humidity;BMP_temperature;BMP_pressure;BME280_temperature;BME280_humidity;BME280_pressure;Samples;Min_cycle;Max_cycle;Signal;HPM_P1;HPM_P2
2023/06/02 00:02:41;;;;;;;3.47;3.17;;;17.50;99.90;;;;;;1767912;80;21613;-81
2023/06/02 00:05:32;;;;;;;4.95;3.62;;;17.50;99.90;;;;;;1767511;81;21068;-81
2023/06/02 00:08:24;;;;;;;5.58;3.25;;;17.50;99.90;;;;;;1738665;81;21155;-81
2023/06/02 00:11:16;;;;;;;5.53;3.70;;;17.40;99.90;;;;;;1748806;81;21218;-81
2023/06/02 00:14:08;;;;;;;3.80;3.40;;;17.40;99.90;;;;;;1765653;81;21153;-81
2023/06/02 00:17:00;;;;;;;4.83;3.60;;;17.30;99.90;;;;;;1755237;81;21162;-81
2023/06/02 00:19:52;;;;;;;6.65;2.90;;;17.30;99.90;;;;;;1751103;81;21104;-81
2023/06/02 00:22:46;;;;;;;6.05;3.90;;;17.40;99.90;;;;;;1766648;80;21455;-81
2023/06/02 00:25:37;;;;;;;4.15;3.52;;;17.40;99.90;;;;;;1751480;81;21230;-81
2023/06/02 00:28:29;;;;;;;9.73;3.65;;;17.40;99.90;;;;;;1744126;81;21549;-81
2023/06/02 00:31:20;;;;;;;5.20;3.10;;;17.30;99.90;;;;;;1723736;82;21167;-81
2023/06/02 00:34:12;;;;;;;3.80;2.80;;;17.00;99.90;;;;;;1769829;81;21632;-81
2023/06/02 00:37:03;;;;;;;3.80;3.00;;;16.80;99.90;;;;;;1769224;81;21143;-81
2023/06/02 00:39:55;;;;;;;6.55;3.42;;;16.80;99.90;;;;;;1780581;80;21236;-81
2023/06/02 00:42:49;;;;;;;3.58;3.27;;;16.80;99.90;;;;;;1773651;80;21545;-80
2023/06/02 00:45:44;;;;;;;3.35;2.95;;;16.80;99.90;;;;;;1785764;80;21187;-81
2023/06/02 00:48:36;;;;;;;4.87;3.65;;;16.80;99.90;;;;;;1783691;80;21129;-80
2023/06/02 00:51:31;;;;;;;3.83;3.10;;;16.80;99.90;;;;;;1781709;80;21565;-80
2023/06/02 00:54:26;;;;;;;6.75;3.40;;;16.80;99.90;;;;;;1793504;80;21173;-80
2023/06/02 00:57:19;;;;;;;4.55;3.00;;;16.80;99.90;;;;;;1789482;80;21549;-80
2023/06/02 01:00:33;;;;;;;4.45;3.25;;;16.70;99.90;;;;;;1789612;79;21226;-80
2023/06/02 01:06:40;;;;;;;5.87;3.08;;;16.40;99.90;;;;;;1772464;80;21098;-80
2023/06/02 01:09:48;;;;;;;4.15;3.47;;;16.40;99.90;;;;;;1790607;80;21099;-80
2023/06/02 01:12:39;;;;;;;4.45;3.40;;;16.40;99.90;;;;;;1773543;80;21699;-80
2023/06/02 01:15:31;;;;;;;4.65;3.02;;;16.30;99.90;;;;;;1777127;80;21137;-80
2023/06/02 01:18:26;;;;;;;4.65;3.22;;;16.40;99.90;;;;;;1746226;81;21135;-82
2023/06/02 01:21:22;;;;;;;6.85;3.25;;;16.40;99.90;;;;;;1762336;81;21685;-81
2023/06/02 01:24:16;;;;;;;4.45;3.67;;;16.40;99.90;;;;;;1791620;80;21165;-81
2023/06/02 01:27:12;;;;;;;5.95;3.45;;;16.30;99.90;;;;;;1788499;80;21106;-81
2023/06/02 01:30:09;;;;;;;4.72;3.47;;;16.20;99.90;;;;;;1777753;80;21242;-81
2023/06/02 01:33:06;;;;;;;5.28;3.60;;;16.20;99.90;;;;;;1753411;82;21145;-81
2023/06/02 01:36:00;;;;;;;3.95;3.12;;;16.20;99.90;;;;;;1782270;80;21164;-81
2023/06/02 01:38:54;;;;;;;5.35;3.75;;;16.40;99.90;;;;;;1735679;81;21199;-81
2023/06/02 01:41:49;;;;;;;5.33;4.05;;;16.50;99.90;;;;;;1736491;81;21223;-81
2023/06/02 01:44:42;;;;;;;6.05;3.83;;;16.60;99.90;;;;;;1745825;80;21223;-81
2023/06/02 01:47:37;;;;;;;5.22;3.65;;;16.70;99.90;;;;;;1742765;80;22307;-80
2023/06/02 01:50:32;;;;;;;4.50;3.27;;;16.70;99.90;;;;;;1760285;81;21178;-80
2023/06/02 01:53:26;;;;;;;5.22;3.60;;;16.80;99.90;;;;;;1766909;81;21137;-80
2023/06/02 01:56:19;;;;;;;3.98;3.30;;;16.80;99.90;;;;;;1813936;79;21122;-80
2023/06/02 01:59:11;;;;;;;7.10;3.67;;;16.80;99.90;;;;;;1767626;80;21208;-81
2023/06/02 02:02:06;;;;;;;4.17;3.50;;;16.80;99.90;;;;;;1815618;78;21147;-81
2023/06/02 02:05:00;;;;;;;3.35;3.02;;;16.70;99.90;;;;;;1743793;81;21186;-81
2023/06/02 02:07:58;;;;;;;4.95;3.47;;;16.80;99.90;;;;;;1739081;82;21151;-81
2023/06/02 02:10:51;;;;;;;3.90;3.45;;;16.80;99.90;;;;;;1767018;80;21129;-81
2023/06/02 02:13:45;;;;;;;4.20;3.25;;;16.80;99.90;;;;;;1753960;80;21144;-80
2023/06/02 02:16:45;;;;;;;4.03;3.62;;;16.80;99.90;;;;;;1761582;81;21617;-81
2023/06/02 02:19:37;;;;;;;5.40;3.47;;;16.80;99.90;;;;;;1761423;81;21162;-81
2023/06/02 02:22:34;;;;;;;4.28;3.77;;;16.80;99.90;;;;;;1761489;81;21147;-81
2023/06/02 02:25:26;;;;;;;4.58;3.45;;;16.70;99.90;;;;;;1760928;81;21208;-81
2023/06/02 02:28:18;;;;;;;4.75;3.67;;;16.70;99.90;;;;;;1749512;80;21148;-81
2023/06/02 02:31:10;;;;;;;4.30;3.58;;;16.70;99.90;;;;;;1755283;81;21619;-81
2023/06/02 02:34:03;;;;;;;3.85;3.40;;;16.70;99.90;;;;;;1752832;80;21140;-80
2023/06/02 02:36:58;;;;;;;5.42;4.03;;;16.80;99.90;;;;;;1759739;81;21639;-80
2023/06/02 02:39:50;;;;;;;4.50;4.10;;;16.80;99.90;;;;;;1746403;82;21144;-80
2023/06/02 02:42:42;;;;;;;6.75;3.85;;;16.80;99.90;;;;;;1747470;81;21762;-80
2023/06/02 02:45:32;;;;;;;5.60;3.60;;;16.80;99.90;;;;;;1753060;82;21101;-80
2023/06/02 02:48:24;;;;;;;7.45;3.40;;;16.80;99.90;;;;;;1761578;81;21085;-81
2023/06/02 02:51:16;;;;;;;5.25;3.70;;;16.80;99.90;;;;;;1761963;81;21108;-81
2023/06/02 02:54:07;;;;;;;6.20;3.70;;;16.70;99.90;;;;;;1745543;81;21648;-80
2023/06/02 02:57:00;;;;;;;4.33;3.62;;;16.60;99.90;;;;;;1762838;81;21154;-81
2023/06/02 02:59:51;;;;;;;5.22;3.85;;;16.70;99.90;;;;;;1741766;81;21208;-81
2023/06/02 03:02:43;;;;;;;4.03;3.50;;;16.70;99.90;;;;;;1762377;81;21160;-80
2023/06/02 03:05:37;;;;;;;4.65;4.12;;;16.70;99.90;;;;;;1747254;81;21611;-81
2023/06/02 03:08:28;;;;;;;5.20;3.75;;;16.70;99.90;;;;;;1763534;81;21101;-80
2023/06/02 03:11:21;;;;;;;5.12;4.30;;;16.60;99.90;;;;;;1762229;81;21447;-80
2023/06/02 03:14:13;;;;;;;5.70;4.75;;;16.60;99.90;;;;;;1761346;80;21635;-81
2023/06/02 03:17:05;;;;;;;5.33;3.77;;;16.60;99.90;;;;;;1762025;81;21136;-81
2023/06/02 03:19:58;;;;;;;7.08;3.65;;;16.60;99.90;;;;;;1745471;81;21151;-81
2023/06/02 03:22:51;;;;;;;6.90;3.80;;;16.60;99.90;;;;;;1762774;81;21132;-81
2023/06/02 03:25:43;;;;;;;4.70;3.90;;;16.60;99.90;;;;;;1762777;81;21132;-81
2023/06/02 03:28:36;;;;;;;4.72;3.95;;;16.60;99.90;;;;;;1761041;80;21124;-81
2023/06/02 03:31:28;;;;;;;5.03;3.83;;;16.70;99.90;;;;;;1746740;81;21370;-81
2023/06/02 03:34:22;;;;;;;4.78;4.15;;;16.60;99.90;;;;;;1754510;81;21148;-81
2023/06/02 03:37:14;;;;;;;4.97;3.77;;;16.70;99.90;;;;;;1758406;81;21219;-81
2023/06/02 03:40:11;;;;;;;5.28;3.98;;;16.70;99.90;;;;;;1762688;81;21620;-81
2023/06/02 03:43:02;;;;;;;8.00;3.90;;;16.60;99.90;;;;;;1751782;81;21173;-80
2023/06/02 03:45:54;;;;;;;4.25;3.75;;;16.50;99.90;;;;;;1766752;81;21099;-81
2023/06/02 03:48:45;;;;;;;6.03;4.30;;;16.10;99.90;;;;;;1766248;80;21193;-81
2023/06/02 03:51:37;;;;;;;11.53;3.90;;;16.10;99.90;;;;;;1767222;81;21196;-81
2023/06/02 03:54:29;;;;;;;4.70;3.90;;;16.10;99.90;;;;;;1768202;81;21127;-81
2023/06/02 03:57:20;;;;;;;5.08;3.80;;;16.20;99.90;;;;;;1752789;80;21122;-81
2023/06/02 04:00:14;;;;;;;4.97;4.00;;;16.30;99.90;;;;;;1766746;81;21151;-81
2023/06/02 04:03:09;;;;;;;4.70;4.20;;;16.30;99.90;;;;;;1750556;81;21651;-81
2023/06/02 04:06:01;;;;;;;4.90;4.30;;;16.40;99.90;;;;;;1752736;81;21191;-81
2023/06/02 04:08:53;;;;;;;5.75;4.00;;;16.40;99.90;;;;;;1755294;81;21108;-81
2023/06/02 04:11:45;;;;;;;6.40;4.00;;;16.50;99.90;;;;;;1766850;81;21195;-80
2023/06/02 04:14:37;;;;;;;11.03;4.42;;;16.50;99.90;;;;;;1761634;80;21183;-81
2023/06/02 04:17:28;;;;;;;5.22;4.42;;;16.50;99.90;;;;;;1767130;80;21183;-80
2023/06/02 04:20:20;;;;;;;5.00;4.10;;;16.50;99.90;;;;;;1768248;81;21131;-80
2023/06/02 04:23:12;;;;;;;5.17;4.17;;;16.50;99.90;;;;;;1769091;81;21197;-81
2023/06/02 04:26:03;;;;;;;5.30;3.98;;;16.60;99.90;;;;;;1769140;81;21173;-81
2023/06/02 04:28:56;;;;;;;4.65;4.25;;;16.50;99.90;;;;;;1747380;81;21243;-81
2023/06/02 04:31:48;;;;;;;7.17;4.25;;;16.40;99.90;;;;;;1768511;80;21563;-81
2023/06/02 04:34:44;;;;;;;7.80;3.90;;;16.30;99.90;;;;;;1748355;82;21206;-81
2023/06/02 04:37:35;;;;;;;6.17;3.95;;;16.30;99.90;;;;;;1768619;81;21122;-81
2023/06/02 04:40:28;;;;;;;4.95;4.03;;;16.30;99.90;;;;;;1766251;81;21651;-81
2023/06/02 04:43:20;;;;;;;5.50;3.92;;;16.20;99.90;;;;;;1756138;80;21622;-81
2023/06/02 04:46:12;;;;;;;6.33;4.25;;;16.20;99.90;;;;;;1753077;81;21142;-81
2023/06/02 04:49:07;;;;;;;7.17;4.53;;;16.30;99.90;;;;;;1769294;81;21094;-81
2023/06/02 04:51:57;;;;;;;9.00;4.95;;;16.40;99.90;;;;;;1769257;81;21155;-81
2023/06/02 04:54:49;;;;;;;7.25;4.40;;;16.50;99.90;;;;;;1768993;80;21262;-80
2023/06/02 04:57:41;;;;;;;6.85;4.58;;;16.70;99.90;;;;;;1770328;81;21651;-81
2023/06/02 05:00:35;;;;;;;8.60;4.80;;;16.70;99.90;;;;;;1732693;83;21144;-81
2023/06/02 05:03:28;;;;;;;6.37;4.80;;;16.70;99.90;;;;;;1801017;79;21070;-80
2023/06/02 05:06:20;;;;;;;4.45;3.98;;;16.70;99.90;;;;;;1770795;81;21234;-80
2023/06/02 05:09:12;;;;;;;7.50;4.35;;;16.80;99.90;;;;;;1768610;81;21143;-81
2023/06/02 05:12:03;;;;;;;5.17;3.75;;;16.80;99.90;;;;;;1749318;81;21098;-80
2023/06/02 05:14:55;;;;;;;6.75;3.83;;;16.80;99.90;;;;;;1767004;80;21619;-81
2023/06/02 05:17:47;;;;;;;5.42;3.80;;;16.80;99.90;;;;;;1766730;80;21153;-81
2023/06/02 05:20:42;;;;;;;4.37;3.98;;;16.80;99.90;;;;;;1752290;81;21202;-81
2023/06/02 05:23:33;;;;;;;5.53;4.05;;;16.80;99.90;;;;;;1755522;81;21198;-81
2023/06/02 05:26:26;;;;;;;5.90;4.12;;;16.70;99.90;;;;;;1769133;80;21086;-72
2023/06/02 05:29:18;;;;;;;5.62;4.00;;;16.70;99.90;;;;;;1746972;81;21173;-72
2023/06/02 05:32:11;;;;;;;5.60;4.20;;;16.70;99.90;;;;;;1769010;81;21584;-72
2023/06/02 05:35:04;;;;;;;5.00;3.80;;;16.70;99.90;;;;;;1765019;80;21090;-72
2023/06/02 05:37:56;;;;;;;4.95;3.85;;;16.80;99.90;;;;;;1751850;81;21597;-72
2023/06/02 05:40:48;;;;;;;6.83;4.28;;;16.80;99.90;;;;;;1770457;81;21203;-73
2023/06/02 05:43:39;;;;;;;5.50;4.35;;;16.80;99.90;;;;;;1771679;80;21207;-72
2023/06/02 05:46:32;;;;;;;7.20;4.37;;;16.80;99.90;;;;;;1776190;80;21671;-72
2023/06/02 05:49:23;;;;;;;5.03;4.47;;;17.00;99.90;;;;;;1773839;79;21093;-73
2023/06/02 05:52:15;;;;;;;5.30;4.80;;;17.10;99.90;;;;;;1784930;80;21250;-72
2023/06/02 05:55:07;;;;;;;5.90;4.58;;;17.20;99.90;;;;;;1783364;80;21145;-73
2023/06/02 05:57:59;;;;;;;5.58;4.78;;;17.20;99.90;;;;;;1780926;80;21111;-73
2023/06/02 06:00:51;;;;;;;5.08;3.92;;;17.20;99.90;;;;;;1760694;81;21543;-72
2023/06/02 06:03:43;;;;;;;5.10;4.08;;;17.20;99.90;;;;;;1776145;81;21177;-72
2023/06/02 06:06:36;;;;;;;6.65;4.30;;;17.30;99.90;;;;;;1776499;81;21643;-73
2023/06/02 06:09:27;;;;;;;6.45;4.37;;;17.30;99.90;;;;;;1789511;79;21211;-72
2023/06/02 06:12:19;;;;;;;7.33;4.50;;;17.30;99.90;;;;;;1790580;80;21885;-73
2023/06/02 06:15:12;;;;;;;6.80;4.42;;;17.30;99.90;;;;;;1757433;81;21182;-73
2023/06/02 06:18:04;;;;;;;8.48;4.72;;;17.40;99.90;;;;;;1785226;80;21168;-74
2023/06/02 06:20:55;;;;;;;5.58;5.00;;;17.40;99.90;;;;;;1775988;80;21300;-74
2023/06/02 06:23:47;;;;;;;7.58;5.28;;;17.50;99.90;;;;;;1777296;80;21150;-75
2023/06/02 06:26:39;;;;;;;6.30;4.87;;;17.60;99.90;;;;;;1773145;79;21216;-74
2023/06/02 06:29:31;;;;;;;7.58;5.08;;;17.70;99.90;;;;;;1789982;80;21150;-78
2023/06/02 06:32:24;;;;;;;6.20;5.17;;;17.70;99.90;;;;;;1771958;80;21170;-74
2023/06/02 06:35:16;;;;;;;6.22;5.62;;;17.80;99.90;;;;;;1790345;80;21145;-78
2023/06/02 06:38:07;;;;;;;6.72;5.40;;;17.90;99.90;;;;;;1774084;80;21223;-73
2023/06/02 06:40:59;;;;;;;7.97;5.28;;;18.00;99.90;;;;;;1792829;80;21191;-73
2023/06/02 06:43:50;;;;;;;6.25;5.12;;;17.90;99.90;;;;;;1788946;79;21150;-74
2023/06/02 06:46:42;;;;;;;6.50;5.33;;;18.10;99.90;;;;;;1791067;80;21555;-74
2023/06/02 06:49:34;;;;;;;5.97;5.22;;;18.10;99.90;;;;;;1786866;80;22331;-73
2023/06/02 06:52:27;;;;;;;6.30;5.22;;;18.20;99.90;;;;;;1756816;81;21124;-73
2023/06/02 06:55:18;;;;;;;5.97;5.22;;;18.20;99.90;;;;;;1792188;80;21162;-74
2023/06/02 06:58:10;;;;;;;8.03;5.47;;;18.20;99.90;;;;;;1789076;80;21136;-73
2023/06/02 07:01:02;;;;;;;7.78;5.03;;;18.20;99.90;;;;;;1789880;80;21132;-73
2023/06/02 07:03:53;;;;;;;7.50;4.90;;;18.20;99.90;;;;;;1771695;79;21214;-73
2023/06/02 07:06:44;;;;;;;6.55;4.67;;;18.40;99.90;;;;;;1791376;80;21089;-73
2023/06/02 07:09:35;;;;;;;7.40;5.00;;;18.40;99.90;;;;;;1790887;80;21146;-73
2023/06/02 07:12:27;;;;;;;5.87;5.00;;;18.40;99.90;;;;;;1798456;79;21132;-74
2023/06/02 07:15:18;;;;;;;5.95;4.58;;;18.50;99.90;;;;;;1775040;80;21148;-78
2023/06/02 07:18:10;;;;;;;8.73;4.85;;;18.70;99.90;;;;;;1788552;80;21220;-78
2023/06/02 07:23:42;;;;;;;6.83;4.70;;;18.80;99.90;;;;;;1954217;72;22248;-78
2023/06/02 07:26:33;;;;;;;5.58;4.87;;;18.80;99.90;;;;;;1883974;76;21128;-78
2023/06/02 07:32:04;;;;;;;7.20;4.75;;;18.90;99.90;;;;;;1957351;72;22142;-79
2023/06/02 07:34:55;;;;;;;6.08;5.00;;;18.90;99.90;;;;;;1898902;75;21109;-79
2023/06/02 07:37:48;;;;;;;6.08;4.85;;;19.00;99.90;;;;;;1907135;75;21247;-78
2023/06/02 07:40:40;;;;;;;5.70;4.78;;;19.10;99.90;;;;;;1883788;75;21101;-78
2023/06/02 07:43:33;;;;;;;6.60;4.90;;;19.10;99.90;;;;;;1879499;75;21480;-78
2023/06/02 07:46:24;;;;;;;6.83;4.92;;;19.20;99.90;;;;;;1899101;75;21066;-77
2023/06/02 07:49:16;;;;;;;9.83;4.75;;;19.30;99.90;;;;;;1896115;75;21047;-77
2023/06/02 07:52:07;;;;;;;5.87;4.53;;;19.40;99.90;;;;;;1887563;75;21259;-77
2023/06/02 07:54:59;;;;;;;5.10;4.60;;;19.40;99.90;;;;;;1905824;75;21054;-78
2023/06/02 07:57:50;;;;;;;5.62;4.22;;;19.50;99.90;;;;;;1883773;76;21095;-78
2023/06/02 08:00:42;;;;;;;4.03;3.60;;;19.60;99.90;;;;;;1897594;75;21106;-77
2023/06/02 08:03:35;;;;;;;5.50;4.25;;;19.60;99.90;;;;;;1894637;75;21133;-78
2023/06/02 08:06:26;;;;;;;4.15;3.58;;;19.70;99.90;;;;;;1891359;75;21114;-78
2023/06/02 08:09:18;;;;;;;5.60;4.20;;;19.80;99.90;;;;;;1904656;75;21097;-78
2023/06/02 08:12:11;;;;;;;4.22;3.80;;;19.90;99.90;;;;;;1884173;75;21108;-78
2023/06/02 08:15:02;;;;;;;5.62;4.20;;;20.00;99.90;;;;;;1894298;75;21091;-78
2023/06/02 08:17:54;;;;;;;7.03;4.10;;;20.10;99.90;;;;;;1894443;75;21127;-78
2023/06/02 08:20:47;;;;;;;5.90;4.10;;;20.10;99.90;;;;;;1894669;75;21228;-77
2023/06/02 08:23:40;;;;;;;4.53;3.95;;;20.20;99.90;;;;;;1900977;75;21103;-77
2023/06/02 08:26:32;;;;;;;5.12;3.62;;;20.30;99.90;;;;;;1895922;75;21155;-77
2023/06/02 08:29:24;;;;;;;6.28;3.70;;;20.40;99.90;;;;;;1894189;75;21531;-77
2023/06/02 08:32:16;;;;;;;3.83;3.47;;;20.50;99.90;;;;;;1900831;74;21145;-77
2023/06/02 08:35:09;;;;;;;5.08;4.30;;;20.60;99.90;;;;;;1926143;74;21094;-77
2023/06/02 08:38:02;;;;;;;5.40;4.00;;;20.70;99.90;;;;;;1907043;74;21090;-77
2023/06/02 08:40:54;;;;;;;4.75;3.75;;;20.80;99.90;;;;;;1917772;74;21216;-77
2023/06/02 08:43:45;;;;;;;4.60;3.67;;;20.80;99.90;;;;;;1914889;74;21094;-77
2023/06/02 08:49:19;;;;;;;3.60;3.30;;;20.90;99.90;;;;;;1957492;72;22135;-77
2023/06/02 08:54:53;;;;;;;3.95;3.62;;;21.10;99.90;;;;;;1951973;72;22178;-77
2023/06/02 08:57:45;;;;;;;4.17;3.22;;;21.10;99.90;;;;;;1901582;75;21102;-77
2023/06/02 09:00:36;;;;;;;4.58;3.58;;;21.20;99.90;;;;;;1896539;75;21232;-78
2023/06/02 09:03:28;;;;;;;5.22;3.60;;;21.30;99.90;;;;;;1887029;75;21625;-77
2023/06/02 09:06:25;;;;;;;4.70;3.87;;;21.40;99.90;;;;;;1883716;75;21119;-77
2023/06/02 09:09:16;;;;;;;4.95;3.52;;;21.50;99.90;;;;;;1904367;75;21530;-77
2023/06/02 09:12:09;;;;;;;5.65;3.83;;;21.50;99.90;;;;;;1899504;75;21156;-77
2023/06/02 09:15:11;;;;;;;4.25;3.65;;;21.60;99.90;;;;;;1894336;75;21172;-77
2023/06/02 09:18:14;;;;;;;5.33;3.83;;;21.70;99.90;;;;;;1894416;75;21157;-77
2023/06/02 09:21:07;;;;;;;3.87;3.47;;;21.70;99.90;;;;;;1894767;75;21271;-77
2023/06/02 09:23:59;;;;;;;4.72;3.50;;;21.80;99.90;;;;;;1894754;75;21067;-77
2023/06/02 09:26:52;;;;;;;3.98;3.27;;;21.90;99.90;;;;;;1899361;75;21161;-77
2023/06/02 09:29:46;;;;;;;4.42;3.30;;;22.00;99.90;;;;;;1895855;75;21094;-77
2023/06/02 09:32:37;;;;;;;4.58;3.30;;;21.90;99.90;;;;;;1909366;75;21148;-77
2023/06/02 09:35:37;;;;;;;5.33;3.67;;;22.00;99.90;;;;;;1908355;75;21101;-77
2023/06/02 09:41:18;;;;;;;3.60;3.22;;;22.20;99.90;;;;;;1944955;72;22184;-77
2023/06/02 09:44:15;;;;;;;3.60;3.05;;;22.20;99.90;;;;;;1906092;75;21437;-77
2023/06/02 09:47:20;;;;;;;7.00;3.67;;;22.40;99.90;;;;;;1910534;75;21146;-76
2023/06/02 09:50:23;;;;;;;5.78;3.52;;;22.50;99.90;;;;;;1894750;75;21134;-77
2023/06/02 09:53:15;;;;;;;7.47;3.77;;;22.60;99.90;;;;;;1894803;75;21148;-77
2023/06/02 09:56:08;;;;;;;5.85;3.95;;;22.60;99.90;;;;;;1901195;75;21122;-77
2023/06/02 09:58:59;;;;;;;4.65;3.50;;;22.80;99.90;;;;;;1895642;75;21117;-77
2023/06/02 10:01:51;;;;;;;4.75;4.00;;;22.90;99.90;;;;;;1887971;75;21171;-77
2023/06/02 10:04:42;;;;;;;5.40;4.05;;;23.10;99.90;;;;;;1906036;75;21160;-77
2023/06/02 10:07:40;;;;;;;5.67;3.40;;;23.10;99.90;;;;;;1883531;76;21118;-79
2023/06/02 10:10:45;;;;;;;5.85;3.37;;;23.10;99.90;;;;;;1884011;75;21338;-76
2023/06/02 10:13:46;;;;;;;3.95;3.22;;;23.20;99.90;;;;;;1896313;75;21090;-78
2023/06/02 10:16:59;;;;;;;4.25;3.45;;;23.30;99.90;;;;;;1894781;75;21550;-77
2023/06/02 10:20:15;;;;;;;3.33;3.00;;;23.40;99.90;;;;;;1885836;75;21174;-78
2023/06/02 10:23:32;;;;;;;3.98;3.20;;;23.40;99.90;;;;;;1893160;75;21448;-77
2023/06/02 10:26:39;;;;;;;3.67;3.10;;;23.50;99.90;;;;;;1894362;75;21054;-77
2023/06/02 10:29:33;;;;;;;3.37;3.03;;;23.60;99.90;;;;;;1895168;75;21176;-78
2023/06/02 10:32:27;;;;;;;3.85;2.80;;;23.60;99.90;;;;;;1894483;75;21070;-78
2023/06/02 10:35:20;;;;;;;3.02;2.70;;;23.70;99.90;;;;;;1895915;75;21098;-79
2023/06/02 10:42:01;;;;;;;3.60;3.05;;;23.70;99.90;;;;;;1953811;72;22127;-78
2023/06/02 10:44:52;;;;;;;;;;;23.90;99.90;;;;;;1904994;75;21095;-78
2023/06/02 10:47:43;;;;;;;3.85;3.02;;;23.90;99.90;;;;;;1897095;75;20245;-78
2023/06/02 10:50:55;;;;;;;4.50;3.02;;;23.90;99.90;;;;;;1909011;75;21106;-77
2023/06/02 10:56:59;;;;;;;3.52;3.10;;;24.10;99.90;;;;;;1927666;72;22602;-77
2023/06/02 10:59:49;;;;;;;3.67;3.37;;;24.20;99.90;;;;;;1905850;75;21130;-78
2023/06/02 11:02:45;;;;;;;3.67;3.20;;;24.30;99.90;;;;;;1883864;75;21543;-77
2023/06/02 11:05:37;;;;;;;3.95;3.15;;;24.40;99.90;;;;;;1897492;75;21191;-77
2023/06/02 11:08:28;;;;;;;3.42;2.90;;;24.50;99.90;;;;;;1894875;75;21111;-78
2023/06/02 11:11:52;;;;;;;4.37;3.12;;;24.60;99.90;;;;;;1900420;75;21145;-78
2023/06/02 11:17:57;;;;;;;4.15;3.35;;;24.60;99.90;;;;;;1952237;72;22864;-78
2023/06/02 11:20:49;;;;;;;4.72;3.10;;;24.70;99.90;;;;;;1905803;75;21184;-78
2023/06/02 11:23:43;;;;;;;3.80;3.47;;;24.70;99.90;;;;;;1900537;75;21121;-76
2023/06/02 11:26:36;;;;;;;3.42;3.12;;;24.80;99.90;;;;;;1895567;75;21189;-78
2023/06/02 11:29:27;;;;;;;4.30;3.50;;;24.90;99.90;;;;;;1888047;75;21185;-78
2023/06/02 11:32:19;;;;;;;4.40;3.20;;;25.00;99.90;;;;;;1885952;75;21127;-77
2023/06/02 11:35:11;;;;;;;8.00;3.75;;;25.00;99.90;;;;;;1897954;75;21098;-77
2023/06/02 11:38:07;;;;;;;4.00;3.50;;;25.10;99.90;;;;;;1898107;75;21175;-77
2023/06/02 11:40:57;;;;;;;4.62;3.58;;;25.20;99.90;;;;;;1906907;75;21193;-77
2023/06/02 11:43:50;;;;;;;6.78;3.62;;;25.20;99.90;;;;;;1883898;76;21114;-77
2023/06/02 11:46:45;;;;;;;4.08;3.50;;;25.30;99.90;;;;;;1904343;75;21106;-77
2023/06/02 11:49:40;;;;;;;4.33;3.47;;;25.30;99.90;;;;;;1900211;75;21114;-77
2023/06/02 11:52:36;;;;;;;5.15;3.98;;;25.40;99.90;;;;;;1895484;75;21146;-77
2023/06/02 11:55:32;;;;;;;4.72;3.42;;;25.50;99.90;;;;;;1887037;75;21065;-77
2023/06/02 11:58:27;;;;;;;4.72;3.60;;;25.60;99.90;;;;;;1887199;75;21661;-77
2023/06/02 12:01:21;;;;;;;4.20;3.80;;;25.60;99.90;;;;;;1895908;75;21137;-77
2023/06/02 12:04:13;;;;;;;4.22;3.83;;;25.50;99.90;;;;;;1883976;76;21102;-77
2023/06/02 12:07:05;;;;;;;4.12;3.67;;;25.30;99.90;;;;;;1894858;75;21514;-77
2023/06/02 12:09:57;;;;;;;4.47;3.98;;;25.40;99.90;;;;;;1911113;75;21114;-78
2023/06/02 12:12:48;;;;;;;4.95;4.28;;;25.30;99.90;;;;;;1883976;75;21112;-77
2023/06/02 12:15:40;;;;;;;4.58;3.27;;;25.40;99.90;;;;;;1900031;75;21123;-77
2023/06/02 12:18:33;;;;;;;6.03;3.77;;;25.60;99.90;;;;;;1908355;74;21155;-78
2023/06/02 12:21:26;;;;;;;4.50;4.10;;;25.60;99.90;;;;;;1903841;74;21061;-77
2023/06/02 12:24:31;;;;;;;4.03;3.67;;;25.70;99.90;;;;;;1921960;74;21167;-78
2023/06/02 12:27:26;;;;;;;5.17;4.03;;;25.80;99.90;;;;;;1899618;75;21117;-77
2023/06/02 12:30:17;;;;;;;8.43;4.12;;;25.80;99.90;;;;;;1916462;74;21213;-78
2023/06/02 12:33:11;;;;;;;4.92;4.10;;;26.00;99.90;;;;;;1837590;77;21190;-78
2023/06/02 12:36:02;;;;;;;5.70;4.08;;;26.10;99.90;;;;;;1921629;74;21138;-77
2023/06/02 12:38:54;;;;;;;4.60;3.90;;;26.30;99.90;;;;;;1921330;74;21164;-77
2023/06/02 12:41:46;;;;;;;4.83;3.75;;;26.40;99.90;;;;;;1898922;75;21099;-77
2023/06/02 12:44:37;;;;;;;4.65;4.20;;;26.60;99.90;;;;;;1840113;77;21428;-78
2023/06/02 12:47:28;;;;;;;5.40;4.20;;;26.50;99.90;;;;;;1908588;74;21117;-77
2023/06/02 12:50:20;;;;;;;4.35;3.95;;;26.60;99.90;;;;;;1910003;74;21114;-77
2023/06/02 12:53:12;;;;;;;4.85;4.08;;;26.70;99.90;;;;;;1909705;74;21179;-78
2023/06/02 12:56:04;;;;;;;4.40;4.00;;;26.60;99.90;;;;;;1914815;74;21338;-77
2023/06/02 12:58:56;;;;;;;4.60;4.20;;;26.50;99.90;;;;;;1898927;74;21098;-79
2023/06/02 13:01:48;;;;;;;6.15;4.50;;;26.50;99.90;;;;;;1906114;74;21098;-78
2023/06/02 13:04:39;;;;;;;5.55;4.05;;;26.50;99.90;;;;;;1907910;74;21130;-78
2023/06/02 13:07:32;;;;;;;4.08;3.75;;;26.70;99.90;;;;;;1898959;75;21564;-78
2023/06/02 13:10:23;;;;;;;4.97;3.92;;;26.70;99.90;;;;;;1899200;74;21192;-78
2023/06/02 13:13:14;;;;;;;6.37;4.05;;;26.70;99.90;;;;;;1907483;74;21091;-78
2023/06/02 13:16:06;;;;;;;4.90;4.40;;;26.80;99.90;;;;;;1909654;74;21059;-78
2023/06/02 13:18:58;;;;;;;5.75;4.30;;;26.80;99.90;;;;;;1908654;74;21209;-78
2023/06/02 13:21:50;;;;;;;5.67;4.10;;;27.10;99.90;;;;;;1907043;74;21176;-78
2023/06/02 13:24:42;;;;;;;4.35;3.47;;;27.20;99.90;;;;;;1903110;74;21122;-78
2023/06/02 13:27:33;;;;;;;6.05;4.60;;;27.40;99.90;;;;;;1902922;74;21210;-78
2023/06/02 13:30:26;;;;;;;4.35;3.75;;;27.30;99.90;;;;;;1903843;74;21068;-78
2023/06/02 13:33:19;;;;;;;4.87;4.35;;;27.30;99.90;;;;;;1909205;74;21521;-78
2023/06/02 13:36:13;;;;;;;4.90;4.08;;;27.40;99.90;;;;;;1828212;77;21113;-78
2023/06/02 13:39:04;;;;;;;3.80;3.40;;;27.60;99.90;;;;;;1909753;75;21181;-78
2023/06/02 13:41:55;;;;;;;4.58;3.65;;;27.40;99.90;;;;;;1884369;75;21058;-79
2023/06/02 13:44:47;;;;;;;5.60;4.03;;;27.50;99.90;;;;;;1916046;75;21102;-78
2023/06/02 13:47:38;;;;;;;4.97;4.03;;;27.90;99.90;;;;;;1895057;75;21542;-78
2023/06/02 13:50:30;;;;;;;10.90;4.60;;;28.00;99.90;;;;;;1888007;75;21095;-78
2023/06/02 13:53:21;;;;;;;5.70;4.87;;;27.70;99.90;;;;;;1905584;75;21181;-78
2023/06/02 13:56:13;;;;;;;5.75;4.97;;;27.50;99.90;;;;;;1901657;75;21139;-77
2023/06/02 13:59:05;;;;;;;5.37;4.00;;;27.00;99.90;;;;;;1896578;75;21133;-77
2023/06/02 14:01:58;;;;;;;8.28;5.33;;;26.10;99.90;;;;;;1894108;75;21106;-77
2023/06/02 14:04:49;;;;;;;6.97;4.97;;;25.80;99.90;;;;;;1891175;75;21153;-77
2023/06/02 14:10:21;;;;;;;6.22;4.50;;;25.50;99.90;;;;;;1957331;72;22131;-77
2023/06/02 14:13:13;;;;;;;5.28;4.78;;;25.40;99.90;;;;;;1906258;75;21129;-78
2023/06/02 14:16:05;;;;;;;4.90;4.47;;;25.40;99.90;;;;;;1885289;75;21631;-78
2023/06/02 14:18:57;;;;;;;5.37;4.25;;;25.30;99.90;;;;;;1898212;75;21185;-78
2023/06/02 14:21:50;;;;;;;4.33;3.92;;;25.20;99.90;;;;;;1883967;76;21070;-78
2023/06/02 14:24:41;;;;;;;4.47;4.08;;;25.10;99.90;;;;;;1883714;75;21154;-79
2023/06/02 14:27:33;;;;;;;5.83;4.60;;;25.20;99.90;;;;;;1887305;75;21157;-78
2023/06/02 14:30:25;;;;;;;4.90;3.95;;;25.20;99.90;;;;;;1896497;75;21059;-79
2023/06/02 14:33:16;;;;;;;4.25;3.85;;;25.20;99.90;;;;;;1899273;75;21543;-79
2023/06/02 14:36:11;;;;;;;3.80;3.40;;;25.20;99.90;;;;;;1894624;75;21123;-79
2023/06/02 14:39:03;;;;;;;4.10;3.20;;;25.10;99.90;;;;;;1894654;75;21098;-78
2023/06/02 14:41:55;;;;;;;4.67;3.60;;;25.00;99.90;;;;;;1894266;75;21055;-78
2023/06/02 14:44:46;;;;;;;5.33;4.78;;;24.90;99.90;;;;;;1899583;75;21142;-78
2023/06/02 14:47:37;;;;;;;9.85;8.70;;;24.70;99.90;;;;;;1916605;75;21103;-77
2023/06/02 14:50:31;;;;;;;11.63;9.70;;;24.50;99.90;;;;;;1888207;75;21135;-77
2023/06/02 14:53:22;;;;;;;10.93;9.38;;;24.40;99.90;;;;;;1885637;75;21144;-78
2023/06/02 14:56:15;;;;;;;7.25;6.20;;;24.30;99.90;;;;;;1898474;75;21135;-80
2023/06/02 14:59:08;;;;;;;7.75;5.25;;;24.30;99.90;;;;;;1897840;75;21120;-79
2023/06/02 15:02:00;;;;;;;6.05;4.25;;;24.20;99.90;;;;;;1894560;75;21059;-78
2023/06/02 15:07:36;;;;;;;5.08;4.20;;;24.10;99.90;;;;;;1958117;72;22145;-77
2023/06/02 15:10:26;;;;;;;6.37;4.40;;;24.10;99.90;;;;;;1904899;74;21044;-77
2023/06/02 15:13:17;;;;;;;7.50;4.15;;;24.10;99.90;;;;;;1904364;74;21114;-77
2023/06/02 15:16:09;;;;;;;5.42;4.08;;;24.00;99.90;;;;;;1904507;74;21108;-77
2023/06/02 15:19:00;;;;;;;5.28;4.78;;;24.00;99.90;;;;;;1904505;75;21056;-79
2023/06/02 15:21:52;;;;;;;8.93;5.37;;;24.00;99.90;;;;;;1914278;74;21146;-78
2023/06/02 15:24:43;;;;;;;5.05;4.45;;;23.90;99.90;;;;;;1927510;74;21117;-78
2023/06/02 15:27:35;;;;;;;6.20;4.50;;;23.80;99.90;;;;;;1904394;75;21155;-78
2023/06/02 15:30:28;;;;;;;7.37;4.90;;;23.70;99.90;;;;;;1904737;75;21485;-78
2023/06/02 15:33:19;;;;;;;5.83;4.95;;;23.80;99.90;;;;;;1904325;75;21098;-78
2023/06/02 15:36:11;;;;;;;7.20;5.08;;;23.70;99.90;;;;;;1904578;75;21168;-78